ASL27D LYBE-LSZH
Flight info
| Callsign | ASL27D |
|---|---|
| Flight time | 1h 25m |
| Altitude | 38000 |
| Route | TUVAR DCT NASSY DCT PODET DCT VALLU DCT KLAGY DCT NANIT DCT ERKIR/N0430F300 L608 KPT L856 NEGRA |
| Aircraft | A320/M-SDE3FGHIRWY/LB1 |
Departure
| Time | 2026-05-01 13:54 |
|---|---|
| Airport | Belgrade Nikola Tesla Airport (LYBE) |
Arrival
| Time | 2026-05-01 15:19 |
|---|---|
| Airport | Zürich Airport (LSZH) |
| Time | Latitude | Longitude | Altitude | Speed | Heading |
|---|---|---|---|---|---|
| 2026-05-01 13:28 | 44.81896 | 20.29238 | 323 ft | 0 kts | 302° |
| 2026-05-01 13:30 | 44.82163 | 20.29109 | 321 ft | 0 kts | 212° |
| 2026-05-01 13:44 | 44.82176 | 20.29120 | 324 ft | 3 kts | 212° |
| 2026-05-01 13:45 | 44.82193 | 20.29136 | 323 ft | 3 kts | 212° |
| 2026-05-01 13:45 | 44.82208 | 20.29155 | 324 ft | 3 kts | 255° |
| 2026-05-01 13:45 | 44.82209 | 20.29182 | 324 ft | 3 kts | 291° |
| 2026-05-01 13:45 | 44.82206 | 20.29194 | 323 ft | 0 kts | 309° |
| 2026-05-01 13:51 | 44.82210 | 20.29187 | 323 ft | 2 kts | 306° |
| 2026-05-01 13:51 | 44.82221 | 20.29163 | 324 ft | 4 kts | 303° |
| 2026-05-01 13:52 | 44.82246 | 20.29129 | 324 ft | 6 kts | 337° |
| 2026-05-01 13:52 | 44.82290 | 20.29138 | 325 ft | 7 kts | 5° |
| 2026-05-01 13:52 | 44.82335 | 20.29094 | 325 ft | 10 kts | 307° |
| 2026-05-01 13:52 | 44.82375 | 20.29002 | 324 ft | 12 kts | 302° |
| 2026-05-01 13:53 | 44.82428 | 20.28893 | 323 ft | 15 kts | 314° |
| 2026-05-01 13:53 | 44.82603 | 20.28997 | 324 ft | 19 kts | 68° |
| 2026-05-01 13:53 | 44.82569 | 20.29293 | 323 ft | 51 kts | 121° |
| 2026-05-01 13:54 | 44.82258 | 20.29987 | 324 ft | 114 kts | 122° |
| 2026-05-01 13:54 | 44.81749 | 20.31125 | 326 ft | 159 kts | 122° |
| 2026-05-01 13:54 | 44.81145 | 20.32483 | 863 ft | 161 kts | 121° |
| 2026-05-01 13:54 | 44.80461 | 20.33770 | 1498 ft | 169 kts | 138° |
| 2026-05-01 13:55 | 44.79397 | 20.34532 | 2068 ft | 182 kts | 169° |
| 2026-05-01 13:55 | 44.78045 | 20.34564 | 2306 ft | 206 kts | 186° |
| 2026-05-01 13:55 | 44.76582 | 20.34349 | 2744 ft | 214 kts | 186° |
| 2026-05-01 13:55 | 44.75081 | 20.34155 | 3327 ft | 219 kts | 184° |
| 2026-05-01 13:56 | 44.73526 | 20.33937 | 3759 ft | 236 kts | 191° |
| 2026-05-01 13:56 | 44.71899 | 20.33144 | 4091 ft | 261 kts | 213° |
| 2026-05-01 13:56 | 44.70676 | 20.31231 | 4709 ft | 271 kts | 248° |
| 2026-05-01 13:56 | 44.70425 | 20.28636 | 5531 ft | 270 kts | 283° |
| 2026-05-01 13:57 | 44.71124 | 20.26226 | 6517 ft | 266 kts | 300° |
| 2026-05-01 13:57 | 44.71714 | 20.24714 | 7123 ft | 267 kts | 302° |
| 2026-05-01 13:57 | 44.72953 | 20.21635 | 8235 ft | 274 kts | 302° |
| 2026-05-01 13:57 | 44.73880 | 20.19272 | 9066 ft | 279 kts | 302° |
| 2026-05-01 13:58 | 44.74788 | 20.16877 | 9857 ft | 283 kts | 302° |
| 2026-05-01 13:58 | 44.75701 | 20.14393 | 10615 ft | 288 kts | 301° |
| 2026-05-01 13:58 | 44.76624 | 20.11825 | 11343 ft | 293 kts | 301° |
| 2026-05-01 13:58 | 44.77540 | 20.09245 | 12061 ft | 296 kts | 301° |
| 2026-05-01 13:59 | 44.78464 | 20.06632 | 12792 ft | 300 kts | 301° |
| 2026-05-01 13:59 | 44.79394 | 20.03984 | 13522 ft | 304 kts | 301° |
| 2026-05-01 13:59 | 44.80335 | 20.01300 | 14228 ft | 308 kts | 301° |
| 2026-05-01 13:59 | 44.81287 | 19.98581 | 14848 ft | 311 kts | 301° |
| 2026-05-01 14:00 | 44.82238 | 19.95871 | 15501 ft | 314 kts | 302° |
| 2026-05-01 14:00 | 44.83212 | 19.93097 | 16099 ft | 318 kts | 302° |
| 2026-05-01 14:00 | 44.84202 | 19.90283 | 16706 ft | 322 kts | 302° |
| 2026-05-01 14:00 | 44.85201 | 19.87439 | 17321 ft | 326 kts | 302° |
| 2026-05-01 14:01 | 44.86212 | 19.84558 | 17950 ft | 329 kts | 303° |
| 2026-05-01 14:01 | 44.87230 | 19.81647 | 18564 ft | 333 kts | 303° |
| 2026-05-01 14:01 | 44.88260 | 19.78702 | 19079 ft | 336 kts | 303° |
| 2026-05-01 14:01 | 44.89297 | 19.75729 | 19612 ft | 340 kts | 303° |
| 2026-05-01 14:02 | 44.90342 | 19.72724 | 20148 ft | 343 kts | 304° |
| 2026-05-01 14:02 | 44.91396 | 19.69687 | 20686 ft | 346 kts | 304° |
| 2026-05-01 14:02 | 44.92458 | 19.66626 | 21202 ft | 349 kts | 304° |
| 2026-05-01 14:02 | 44.93529 | 19.63541 | 21714 ft | 352 kts | 304° |
| 2026-05-01 14:03 | 44.94608 | 19.60427 | 22221 ft | 355 kts | 304° |
| 2026-05-01 14:03 | 44.95326 | 19.58351 | 22550 ft | 356 kts | 304° |
| 2026-05-01 14:03 | 44.96417 | 19.55191 | 23046 ft | 359 kts | 304° |
| 2026-05-01 14:03 | 44.97517 | 19.52007 | 23534 ft | 362 kts | 305° |
| 2026-05-01 14:04 | 44.98626 | 19.48795 | 23995 ft | 365 kts | 305° |
| 2026-05-01 14:04 | 44.99744 | 19.45551 | 24365 ft | 369 kts | 305° |
| 2026-05-01 14:04 | 45.00873 | 19.42279 | 24726 ft | 373 kts | 305° |
| 2026-05-01 14:04 | 45.02013 | 19.38974 | 25107 ft | 376 kts | 306° |
| 2026-05-01 14:05 | 45.03160 | 19.35639 | 25491 ft | 379 kts | 306° |
| 2026-05-01 14:05 | 45.04314 | 19.32275 | 25877 ft | 382 kts | 306° |
| 2026-05-01 14:05 | 45.05473 | 19.28888 | 26262 ft | 385 kts | 306° |
| 2026-05-01 14:05 | 45.06641 | 19.25471 | 26642 ft | 387 kts | 306° |
| 2026-05-01 14:06 | 45.07818 | 19.22024 | 27033 ft | 390 kts | 306° |
| 2026-05-01 14:06 | 45.08998 | 19.18554 | 27404 ft | 393 kts | 306° |
| 2026-05-01 14:06 | 45.10188 | 19.15059 | 27783 ft | 396 kts | 306° |
| 2026-05-01 14:06 | 45.11389 | 19.11535 | 28156 ft | 398 kts | 306° |
| 2026-05-01 14:07 | 45.12596 | 19.07990 | 28513 ft | 401 kts | 307° |
| 2026-05-01 14:07 | 45.13812 | 19.04402 | 28744 ft | 409 kts | 306° |
| 2026-05-01 14:07 | 45.15049 | 19.00722 | 28871 ft | 418 kts | 306° |
| 2026-05-01 14:08 | 45.17575 | 18.93125 | 29158 ft | 435 kts | 305° |
| 2026-05-01 14:08 | 45.18868 | 18.89206 | 29301 ft | 443 kts | 305° |
| 2026-05-01 14:08 | 45.20180 | 18.85220 | 29447 ft | 450 kts | 305° |
| 2026-05-01 14:08 | 45.21513 | 18.81164 | 29589 ft | 458 kts | 305° |
| 2026-05-01 14:09 | 45.22868 | 18.77042 | 29722 ft | 464 kts | 304° |
| 2026-05-01 14:09 | 45.24236 | 18.72876 | 30011 ft | 468 kts | 304° |
| 2026-05-01 14:09 | 45.25612 | 18.68679 | 30333 ft | 471 kts | 304° |
| 2026-05-01 14:09 | 45.26988 | 18.64464 | 30729 ft | 470 kts | 304° |
| 2026-05-01 14:10 | 45.28341 | 18.60311 | 31143 ft | 469 kts | 304° |
| 2026-05-01 14:10 | 45.29711 | 18.56114 | 31576 ft | 468 kts | 304° |
| 2026-05-01 14:10 | 45.31078 | 18.51935 | 32023 ft | 466 kts | 304° |
| 2026-05-01 14:10 | 45.32443 | 18.47756 | 32464 ft | 465 kts | 303° |
| 2026-05-01 14:11 | 45.33801 | 18.43587 | 32873 ft | 464 kts | 303° |
| 2026-05-01 14:11 | 45.36502 | 18.35274 | 33742 ft | 462 kts | 303° |
| 2026-05-01 14:11 | 45.37844 | 18.31123 | 34181 ft | 462 kts | 303° |
| 2026-05-01 14:12 | 45.39183 | 18.26979 | 34571 ft | 461 kts | 303° |
| 2026-05-01 14:12 | 45.40519 | 18.22841 | 34946 ft | 459 kts | 303° |
| 2026-05-01 14:12 | 45.41849 | 18.18716 | 35312 ft | 458 kts | 302° |
| 2026-05-01 14:12 | 45.43170 | 18.14604 | 35677 ft | 457 kts | 302° |
| 2026-05-01 14:13 | 45.44485 | 18.10494 | 35993 ft | 456 kts | 302° |
| 2026-05-01 14:13 | 45.45787 | 18.06381 | 36269 ft | 456 kts | 301° |
| 2026-05-01 14:13 | 45.48351 | 17.98062 | 36330 ft | 462 kts | 301° |
| 2026-05-01 14:14 | 45.50907 | 17.89651 | 36331 ft | 463 kts | 301° |
| 2026-05-01 14:14 | 45.53463 | 17.81224 | 36335 ft | 463 kts | 301° |
| 2026-05-01 14:15 | 45.56024 | 17.72791 | 36342 ft | 463 kts | 301° |
| 2026-05-01 14:15 | 45.58582 | 17.64355 | 36343 ft | 463 kts | 301° |
| 2026-05-01 14:16 | 45.61137 | 17.55905 | 36335 ft | 463 kts | 301° |
| 2026-05-01 14:16 | 45.63685 | 17.47451 | 36342 ft | 463 kts | 301° |
| 2026-05-01 14:17 | 45.66213 | 17.38983 | 36337 ft | 463 kts | 300° |
| 2026-05-01 14:17 | 45.68734 | 17.30511 | 36353 ft | 463 kts | 301° |
| 2026-05-01 14:18 | 45.71260 | 17.22048 | 36361 ft | 463 kts | 301° |
| 2026-05-01 14:18 | 45.73358 | 17.15009 | 36361 ft | 463 kts | 300° |
| 2026-05-01 14:19 | 45.76292 | 17.05101 | 36347 ft | 462 kts | 300° |
| 2026-05-01 14:19 | 45.78791 | 16.96614 | 36358 ft | 462 kts | 300° |
| 2026-05-01 14:20 | 45.82527 | 16.83881 | 36360 ft | 462 kts | 300° |
| 2026-05-01 14:21 | 45.85007 | 16.75383 | 36321 ft | 462 kts | 300° |
| 2026-05-01 14:21 | 45.87480 | 16.66888 | 36345 ft | 461 kts | 300° |
| 2026-05-01 14:22 | 45.91173 | 16.54152 | 36372 ft | 460 kts | 300° |
| 2026-05-01 14:22 | 45.93610 | 16.45720 | 36359 ft | 460 kts | 300° |
| 2026-05-01 14:23 | 45.96053 | 16.37228 | 36341 ft | 460 kts | 299° |
| 2026-05-01 14:23 | 45.98501 | 16.28677 | 36351 ft | 459 kts | 299° |
| 2026-05-01 14:24 | 46.00916 | 16.20244 | 36357 ft | 459 kts | 299° |
| 2026-05-01 14:24 | 46.03355 | 16.11690 | 36355 ft | 459 kts | 299° |
| 2026-05-01 14:25 | 46.05765 | 16.03194 | 36330 ft | 458 kts | 299° |
| 2026-05-01 14:25 | 46.08167 | 15.94697 | 36354 ft | 458 kts | 299° |
| 2026-05-01 14:26 | 46.11732 | 15.82009 | 36358 ft | 457 kts | 299° |
| 2026-05-01 14:27 | 46.14118 | 15.73524 | 36353 ft | 456 kts | 299° |
| 2026-05-01 14:27 | 46.16484 | 15.65034 | 36352 ft | 456 kts | 299° |
| 2026-05-01 14:28 | 46.21058 | 15.53268 | 36348 ft | 447 kts | 308° |
| 2026-05-01 14:28 | 46.24259 | 15.45556 | 36345 ft | 448 kts | 308° |
| 2026-05-01 14:29 | 46.27447 | 15.37828 | 36350 ft | 448 kts | 308° |
| 2026-05-01 14:30 | 46.33736 | 15.22270 | 36344 ft | 448 kts | 306° |
| 2026-05-01 14:31 | 46.38388 | 15.10531 | 36345 ft | 448 kts | 306° |
| 2026-05-01 14:31 | 46.41492 | 15.02707 | 36348 ft | 448 kts | 307° |
| 2026-05-01 14:32 | 46.44574 | 14.94928 | 36331 ft | 448 kts | 306° |
| 2026-05-01 14:32 | 46.47672 | 14.87092 | 36342 ft | 448 kts | 306° |
| 2026-05-01 14:33 | 46.50754 | 14.79247 | 36351 ft | 448 kts | 306° |
| 2026-05-01 14:33 | 46.53804 | 14.71353 | 36350 ft | 448 kts | 305° |
| 2026-05-01 14:34 | 46.56785 | 14.63397 | 36328 ft | 448 kts | 304° |
| 2026-05-01 14:34 | 46.59758 | 14.55427 | 36338 ft | 448 kts | 304° |
| 2026-05-01 14:35 | 46.62738 | 14.47464 | 36341 ft | 448 kts | 305° |
| 2026-05-01 14:35 | 46.65724 | 14.39507 | 36341 ft | 448 kts | 304° |
| 2026-05-01 14:36 | 46.68698 | 14.31534 | 36307 ft | 448 kts | 304° |
| 2026-05-01 14:36 | 46.71658 | 14.23545 | 36319 ft | 448 kts | 304° |
| 2026-05-01 14:37 | 46.74624 | 14.15545 | 36340 ft | 449 kts | 304° |
| 2026-05-01 14:37 | 46.77588 | 14.07545 | 36347 ft | 448 kts | 304° |
| 2026-05-01 14:38 | 46.80539 | 13.99529 | 36359 ft | 448 kts | 304° |
| 2026-05-01 14:38 | 46.83481 | 13.91520 | 36337 ft | 447 kts | 303° |
| 2026-05-01 14:39 | 46.86409 | 13.83502 | 36340 ft | 447 kts | 303° |
| 2026-05-01 14:39 | 46.89329 | 13.75477 | 36342 ft | 447 kts | 303° |
| 2026-05-01 14:40 | 46.92250 | 13.67453 | 36337 ft | 447 kts | 303° |
| 2026-05-01 14:40 | 46.95167 | 13.59416 | 36317 ft | 447 kts | 303° |
| 2026-05-01 14:41 | 46.98081 | 13.51369 | 36320 ft | 447 kts | 303° |
| 2026-05-01 14:41 | 47.00972 | 13.43374 | 36329 ft | 447 kts | 303° |
| 2026-05-01 14:42 | 47.03873 | 13.35304 | 36330 ft | 447 kts | 302° |
| 2026-05-01 14:42 | 47.06758 | 13.27229 | 36333 ft | 446 kts | 302° |
| 2026-05-01 14:43 | 47.09640 | 13.19158 | 36323 ft | 446 kts | 302° |
| 2026-05-01 14:43 | 47.12515 | 13.11085 | 36318 ft | 446 kts | 302° |
| 2026-05-01 14:44 | 47.15384 | 13.03003 | 36329 ft | 446 kts | 302° |
| 2026-05-01 14:44 | 47.19683 | 12.90869 | 36328 ft | 446 kts | 302° |
| 2026-05-01 14:45 | 47.23963 | 12.78722 | 36312 ft | 446 kts | 301° |
| 2026-05-01 14:46 | 47.26807 | 12.70617 | 36322 ft | 445 kts | 301° |
| 2026-05-01 14:46 | 47.31048 | 12.58458 | 36316 ft | 445 kts | 301° |
| 2026-05-01 14:47 | 47.33875 | 12.50341 | 36301 ft | 445 kts | 301° |
| 2026-05-01 14:48 | 47.38105 | 12.38149 | 36321 ft | 445 kts | 301° |
| 2026-05-01 14:48 | 47.42842 | 12.26449 | 36325 ft | 442 kts | 306° |
| 2026-05-01 14:49 | 47.49427 | 12.11109 | 36325 ft | 442 kts | 306° |
| 2026-05-01 14:50 | 47.54450 | 11.96212 | 36323 ft | 451 kts | 285° |
| 2026-05-01 14:51 | 47.56360 | 11.82561 | 36309 ft | 452 kts | 285° |
| 2026-05-01 14:52 | 47.58264 | 11.68897 | 36290 ft | 451 kts | 285° |
| 2026-05-01 14:53 | 47.60144 | 11.55242 | 36298 ft | 451 kts | 284° |
| 2026-05-01 14:53 | 47.61387 | 11.46131 | 36302 ft | 451 kts | 284° |
| 2026-05-01 14:54 | 47.62615 | 11.37018 | 36290 ft | 451 kts | 284° |
| 2026-05-01 14:54 | 47.63747 | 11.27877 | 36311 ft | 451 kts | 283° |
| 2026-05-01 14:55 | 47.64817 | 11.18718 | 36315 ft | 449 kts | 282° |
| 2026-05-01 14:55 | 47.65887 | 11.09635 | 36318 ft | 448 kts | 283° |
| 2026-05-01 14:56 | 47.66983 | 11.00535 | 36314 ft | 448 kts | 283° |
| 2026-05-01 14:56 | 47.68069 | 10.91440 | 36300 ft | 447 kts | 282° |
| 2026-05-01 14:57 | 47.69132 | 10.82421 | 36301 ft | 446 kts | 282° |
| 2026-05-01 14:57 | 47.70191 | 10.73333 | 35985 ft | 449 kts | 282° |
| 2026-05-01 14:57 | 47.70719 | 10.68767 | 35484 ft | 448 kts | 282° |
| 2026-05-01 14:58 | 47.71245 | 10.64203 | 34991 ft | 449 kts | 282° |
| 2026-05-01 14:58 | 47.71773 | 10.59623 | 34512 ft | 451 kts | 282° |
| 2026-05-01 14:58 | 47.72303 | 10.55023 | 33977 ft | 452 kts | 282° |
| 2026-05-01 14:58 | 47.72829 | 10.50434 | 33431 ft | 450 kts | 282° |
| 2026-05-01 14:59 | 47.73349 | 10.45873 | 32899 ft | 446 kts | 282° |
| 2026-05-01 14:59 | 47.73862 | 10.41342 | 32373 ft | 443 kts | 282° |
| 2026-05-01 14:59 | 47.74354 | 10.36842 | 31860 ft | 440 kts | 279° |
| 2026-05-01 14:59 | 47.74523 | 10.32311 | 31357 ft | 439 kts | 271° |
| 2026-05-01 15:00 | 47.74317 | 10.23293 | 30370 ft | 434 kts | 270° |
| 2026-05-01 15:00 | 47.74216 | 10.18833 | 29802 ft | 431 kts | 270° |
| 2026-05-01 15:00 | 47.74115 | 10.14403 | 29241 ft | 427 kts | 270° |
| 2026-05-01 15:01 | 47.74013 | 10.10009 | 28680 ft | 424 kts | 270° |
| 2026-05-01 15:01 | 47.73911 | 10.05644 | 28141 ft | 421 kts | 270° |
| 2026-05-01 15:01 | 47.73806 | 10.01318 | 27614 ft | 418 kts | 270° |
| 2026-05-01 15:01 | 47.73701 | 9.97026 | 27141 ft | 414 kts | 270° |
| 2026-05-01 15:02 | 47.73598 | 9.92775 | 26677 ft | 410 kts | 270° |
| 2026-05-01 15:02 | 47.73527 | 9.89921 | 26369 ft | 408 kts | 270° |
| 2026-05-01 15:02 | 47.73383 | 9.84371 | 25775 ft | 404 kts | 270° |
| 2026-05-01 15:02 | 47.73273 | 9.80220 | 25335 ft | 402 kts | 270° |
| 2026-05-01 15:03 | 47.73165 | 9.76086 | 24895 ft | 399 kts | 270° |
| 2026-05-01 15:03 | 47.73058 | 9.71976 | 24473 ft | 397 kts | 270° |
| 2026-05-01 15:03 | 47.73041 | 9.67895 | 24031 ft | 394 kts | 272° |
| 2026-05-01 15:03 | 47.73120 | 9.63840 | 23522 ft | 392 kts | 274° |
| 2026-05-01 15:04 | 47.73249 | 9.59804 | 22976 ft | 390 kts | 274° |
| 2026-05-01 15:04 | 47.73389 | 9.55786 | 22439 ft | 389 kts | 274° |
| 2026-05-01 15:04 | 47.73519 | 9.51781 | 21916 ft | 387 kts | 274° |
| 2026-05-01 15:04 | 47.73631 | 9.47795 | 21390 ft | 386 kts | 273° |
| 2026-05-01 15:05 | 47.73729 | 9.43828 | 20892 ft | 384 kts | 273° |
| 2026-05-01 15:05 | 47.73816 | 9.39871 | 20389 ft | 382 kts | 272° |
| 2026-05-01 15:05 | 47.73895 | 9.35943 | 19915 ft | 379 kts | 272° |
| 2026-05-01 15:05 | 47.73971 | 9.32035 | 19432 ft | 377 kts | 272° |
| 2026-05-01 15:06 | 47.74047 | 9.28158 | 18951 ft | 375 kts | 272° |
| 2026-05-01 15:06 | 47.74125 | 9.24294 | 18470 ft | 373 kts | 272° |
| 2026-05-01 15:06 | 47.74203 | 9.20450 | 17935 ft | 371 kts | 272° |
| 2026-05-01 15:06 | 47.74280 | 9.16625 | 17407 ft | 369 kts | 272° |
| 2026-05-01 15:07 | 47.74355 | 9.12826 | 16893 ft | 367 kts | 272° |
| 2026-05-01 15:07 | 47.74431 | 9.09043 | 16380 ft | 365 kts | 272° |
| 2026-05-01 15:07 | 47.74505 | 9.05277 | 15874 ft | 363 kts | 271° |
| 2026-05-01 15:07 | 47.74574 | 9.01534 | 15389 ft | 362 kts | 271° |
| 2026-05-01 15:08 | 47.74641 | 8.97806 | 14904 ft | 360 kts | 271° |
| 2026-05-01 15:08 | 47.74709 | 8.94095 | 14426 ft | 359 kts | 271° |
| 2026-05-01 15:08 | 47.74775 | 8.90400 | 13939 ft | 357 kts | 271° |
| 2026-05-01 15:08 | 47.74838 | 8.86716 | 13411 ft | 356 kts | 271° |
| 2026-05-01 15:09 | 47.74899 | 8.83055 | 12891 ft | 354 kts | 270° |
| 2026-05-01 15:09 | 47.74958 | 8.79411 | 12399 ft | 351 kts | 270° |
| 2026-05-01 15:09 | 47.75015 | 8.75800 | 11948 ft | 348 kts | 270° |
| 2026-05-01 15:09 | 47.75071 | 8.72225 | 11502 ft | 345 kts | 270° |
| 2026-05-01 15:10 | 47.75126 | 8.68678 | 11060 ft | 342 kts | 270° |
| 2026-05-01 15:10 | 47.75233 | 8.61667 | 10285 ft | 335 kts | 269° |
| 2026-05-01 15:10 | 47.75285 | 8.58224 | 9899 ft | 331 kts | 269° |
| 2026-05-01 15:11 | 47.75334 | 8.54822 | 9499 ft | 327 kts | 270° |
| 2026-05-01 15:11 | 47.75426 | 8.48340 | 8732 ft | 300 kts | 269° |
| 2026-05-01 15:11 | 47.75467 | 8.45299 | 8349 ft | 289 kts | 270° |
| 2026-05-01 15:12 | 47.75505 | 8.42367 | 7977 ft | 279 kts | 270° |
| 2026-05-01 15:12 | 47.75185 | 8.36841 | 7243 ft | 262 kts | 249° |
| 2026-05-01 15:12 | 47.74366 | 8.34423 | 6923 ft | 263 kts | 233° |
| 2026-05-01 15:13 | 47.70729 | 8.28528 | 6165 ft | 254 kts | 222° |
| 2026-05-01 15:14 | 47.67527 | 8.27498 | 5655 ft | 244 kts | 157° |
| 2026-05-01 15:14 | 47.66196 | 8.28974 | 5407 ft | 239 kts | 130° |
| 2026-05-01 15:14 | 47.63876 | 8.32385 | 4968 ft | 231 kts | 141° |
| 2026-05-01 15:15 | 47.61484 | 8.35401 | 4568 ft | 222 kts | 136° |
| 2026-05-01 15:15 | 47.59316 | 8.38379 | 4162 ft | 202 kts | 136° |
| 2026-05-01 15:16 | 47.57317 | 8.41125 | 3844 ft | 190 kts | 135° |
| 2026-05-01 15:16 | 47.55416 | 8.43736 | 3364 ft | 183 kts | 135° |
| 2026-05-01 15:17 | 47.53696 | 8.46091 | 2919 ft | 153 kts | 135° |
| 2026-05-01 15:18 | 47.51503 | 8.49097 | 2329 ft | 139 kts | 134° |
| 2026-05-01 15:18 | 47.50785 | 8.50080 | 2140 ft | 142 kts | 135° |
| 2026-05-01 15:19 | 47.48630 | 8.53033 | 1573 ft | 141 kts | 132° |
| 2026-05-01 15:19 | 47.47319 | 8.54823 | 1386 ft | 92 kts | 137° |
| 2026-05-01 15:19 | 47.46975 | 8.55294 | 1389 ft | 47 kts | 136° |
| 2026-05-01 15:20 | 47.46490 | 8.55714 | 1401 ft | 16 kts | 168° |
| 2026-05-01 15:20 | 47.46380 | 8.55762 | 1407 ft | 16 kts | 150° |
| 2026-05-01 15:20 | 47.46300 | 8.55870 | 1409 ft | 12 kts | 138° |
| 2026-05-01 15:21 | 47.46235 | 8.55865 | 1411 ft | 11 kts | 235° |
| 2026-05-01 15:21 | 47.46237 | 8.55752 | 1401 ft | 11 kts | 275° |
| 2026-05-01 15:21 | 47.46212 | 8.55682 | 1402 ft | 3 kts | 176° |
| 2026-05-01 15:21 | 47.46192 | 8.55686 | 1408 ft | 2 kts | 176° |
| 2026-05-01 15:22 | 47.46153 | 8.55682 | 1402 ft | 1 kts | 185° |